Time;durP1;ratioP1;P1;durP2;ratioP2;P2;SDS_P1;SDS_P2;PMS_P1;PMS_P2;Temp;Humidity;BMP_temperature;BMP_pressure;BME280_temperature;BME280_humidity;BME280_pressure;Samples;Min_cycle;Max_cycle;Signal;HPM_P1;HPM_P2
2022/12/02 00:01:28;;;;;;;26.83;19.00;;;;;;;6.11;69.53;100781.16;10382520;28;20045;-61
2022/12/02 00:06:31;;;;;;;26.95;18.00;;;;;;;6.10;69.44;100782.13;10380612;28;20431;-60
2022/12/02 00:11:33;;;;;;;25.27;17.15;;;;;;;6.03;70.09;100770.16;10385734;28;20049;-61
2022/12/02 00:16:34;;;;;;;29.30;19.17;;;;;;;5.94;69.42;100764.38;10383705;28;20443;-61
2022/12/02 00:21:35;;;;;;;25.90;18.23;;;;;;;5.82;70.16;100767.69;10393673;28;20187;-64
2022/12/02 00:26:37;;;;;;;27.08;18.55;;;;;;;5.83;70.22;100769.41;10391087;28;20053;-61
2022/12/02 00:31:38;;;;;;;28.42;17.92;;;;;;;5.80;69.94;100757.19;10391414;28;20045;-61
2022/12/02 00:36:39;;;;;;;24.00;16.83;;;;;;;5.87;70.27;100765.66;10391413;28;20529;-60
2022/12/02 00:41:41;;;;;;;26.88;17.08;;;;;;;5.85;69.90;100756.94;10390617;28;20052;-61
2022/12/02 00:46:42;;;;;;;25.13;17.90;;;;;;;5.95;69.97;100767.91;10392002;28;20131;-61
2022/12/02 00:51:44;;;;;;;28.10;19.15;;;;;;;5.84;69.96;100745.53;10388603;28;20499;-63
2022/12/02 00:56:45;;;;;;;30.13;18.50;;;;;;;5.83;69.74;100742.97;10392110;28;20136;-62
2022/12/02 01:01:47;;;;;;;27.33;20.25;;;;;;;5.90;69.94;100739.09;10388110;28;20064;-60
2022/12/02 01:06:48;;;;;;;25.65;17.23;;;;;;;5.87;69.91;100733.09;10393059;28;20053;-60
2022/12/02 01:11:50;;;;;;;24.05;17.73;;;;;;;5.81;70.03;100735.13;10389440;28;20052;-62
2022/12/02 01:16:51;;;;;;;25.83;18.02;;;;;;;5.71;70.37;100718.06;10393975;28;20323;-62
2022/12/02 01:21:53;;;;;;;25.35;17.27;;;;;;;5.61;70.48;100712.41;10393076;28;20057;-62
2022/12/02 01:26:54;;;;;;;27.15;17.50;;;;;;;5.64;71.21;100728.13;10394603;28;20053;-62
2022/12/02 01:31:56;;;;;;;25.75;18.42;;;;;;;5.70;70.47;100740.13;10384409;28;20694;-62
2022/12/02 01:36:57;;;;;;;28.50;18.30;;;;;;;5.72;70.66;100734.75;10390062;28;20373;-62
2022/12/02 01:41:59;;;;;;;28.58;18.52;;;;;;;5.72;70.97;100734.75;10388170;28;20303;-61
2022/12/02 01:47:01;;;;;;;29.10;17.73;;;;;;;5.75;70.55;100732.81;10388040;28;20364;-61
2022/12/02 01:52:02;;;;;;;28.02;19.50;;;;;;;5.76;70.53;100731.88;10387315;28;20056;-61
2022/12/02 01:57:10;;;;;;;28.20;18.17;;;;;;;5.77;70.34;100735.38;10385355;28;20052;-61
2022/12/02 02:02:29;;;;;;;28.27;19.02;;;;;;;5.65;70.60;100728.94;10390098;28;20081;-60
2022/12/02 02:07:32;;;;;;;29.48;18.58;;;;;;;5.73;70.70;100731.19;10386687;28;20041;-61
2022/12/02 02:12:34;;;;;;;27.58;18.13;;;;;;;5.74;70.75;100730.25;10387665;28;20268;-61
2022/12/02 02:17:36;;;;;;;27.40;18.80;;;;;;;5.81;70.27;100728.97;10388468;28;20339;-61
2022/12/02 02:23:00;;;;;;;25.35;18.20;;;;;;;5.77;70.58;100722.19;10390222;28;20511;-60
2022/12/02 02:28:02;;;;;;;27.53;17.77;;;;;;;5.75;70.50;100713.47;10383914;28;20045;-61
2022/12/02 02:33:06;;;;;;;26.13;17.08;;;;;;;5.75;70.72;100721.38;10386998;28;20101;-60
2022/12/02 02:38:11;;;;;;;24.90;18.27;;;;;;;5.77;70.88;100715.09;10388825;28;20065;-61
2022/12/02 02:43:15;;;;;;;27.67;19.70;;;;;;;5.79;70.96;100712.38;10384175;28;20326;-61
2022/12/02 02:48:17;;;;;;;32.75;22.85;;;;;;;5.80;71.08;100708.81;10383681;28;20052;-61
2022/12/02 02:53:22;;;;;;;30.60;20.52;;;;;;;5.80;71.28;100708.81;10386474;28;20045;-60
2022/12/02 02:58:25;;;;;;;31.95;20.25;;;;;;;5.78;71.46;100716.81;10393100;28;20054;-60
2022/12/02 03:03:30;;;;;;;29.00;19.52;;;;;;;5.80;71.56;100703.53;10390737;28;20057;-60
2022/12/02 03:08:33;;;;;;;28.35;19.10;;;;;;;5.69;71.48;100690.00;10386676;28;20540;-61
2022/12/02 03:13:36;;;;;;;32.40;20.33;;;;;;;5.71;71.76;100696.94;10380491;28;20491;-61
2022/12/02 03:18:40;;;;;;;31.13;21.08;;;;;;;5.71;71.63;100674.97;10386117;28;20049;-61
2022/12/02 03:23:43;;;;;;;33.55;20.75;;;;;;;5.64;71.84;100669.13;10383796;28;20045;-60
2022/12/02 03:28:46;;;;;;;30.58;19.50;;;;;;;5.64;71.52;100662.09;10394154;28;20044;-61
2022/12/02 03:33:48;;;;;;;29.65;20.80;;;;;;;5.68;71.21;100673.31;10384516;28;20045;-61
2022/12/02 03:38:50;;;;;;;31.33;20.60;;;;;;;5.71;70.95;100652.03;10392610;28;20072;-61
2022/12/02 03:43:53;;;;;;;27.58;18.40;;;;;;;5.53;71.69;100659.16;10382560;28;20742;-61
2022/12/02 03:48:56;;;;;;;29.60;18.85;;;;;;;5.40;72.40;100668.63;10385441;28;20076;-60
2022/12/02 03:54:00;;;;;;;28.45;19.55;;;;;;;5.46;72.05;100660.41;10387576;28;20098;-61
2022/12/02 03:59:01;;;;;;;29.42;20.10;;;;;;;5.54;72.09;100660.84;10393261;28;20061;-60
2022/12/02 04:04:02;;;;;;;29.40;20.48;;;;;;;5.57;71.50;100652.78;10391027;28;21300;-61
2022/12/02 04:09:04;;;;;;;25.30;18.75;;;;;;;5.47;71.77;100651.56;10392803;28;20045;-61
2022/12/02 04:14:05;;;;;;;27.75;18.60;;;;;;;5.25;72.61;100636.81;10387285;28;20444;-60
2022/12/02 04:19:06;;;;;;;27.88;19.00;;;;;;;5.42;72.34;100635.94;10393303;28;20049;-61
2022/12/02 04:24:08;;;;;;;29.67;19.15;;;;;;;5.32;72.12;100625.00;10393433;28;20064;-60
2022/12/02 04:29:09;;;;;;;27.33;19.08;;;;;;;5.42;71.93;100637.72;10390074;28;20049;-61
2022/12/02 04:34:10;;;;;;;33.17;20.20;;;;;;;5.47;71.68;100625.16;10400095;28;20061;-60
2022/12/02 04:39:12;;;;;;;31.83;18.83;;;;;;;5.43;71.78;100626.22;10394880;28;20052;-60
2022/12/02 04:44:13;;;;;;;25.55;17.92;;;;;;;5.26;72.10;100612.13;10393358;28;20068;-60
2022/12/02 04:49:18;;;;;;;26.58;18.25;;;;;;;5.29;72.35;100617.25;10397880;28;20045;-61
2022/12/02 04:54:19;;;;;;;30.23;18.55;;;;;;;5.35;71.88;100607.31;10395493;28;20077;-61
2022/12/02 04:59:21;;;;;;;25.63;18.33;;;;;;;5.43;71.39;100613.88;10390315;28;20436;-61
2022/12/02 05:04:22;;;;;;;23.00;16.60;;;;;;;5.47;70.76;100599.59;10389381;28;20045;-61
2022/12/02 05:09:23;;;;;;;23.27;16.52;;;;;;;5.55;70.33;100616.81;10382054;28;20054;-61
2022/12/02 05:14:25;;;;;;;22.55;15.93;;;;;;;5.52;70.19;100617.81;10381760;28;20293;-62
2022/12/02 05:19:26;;;;;;;21.00;16.05;;;;;;;5.60;70.41;100620.91;10379462;28;20053;-61
2022/12/02 05:24:28;;;;;;;23.90;15.82;;;;;;;5.52;69.98;100611.69;10390915;28;20049;-61
2022/12/02 05:29:29;;;;;;;24.95;16.38;;;;;;;5.44;70.70;100598.91;10385461;28;20057;-63
2022/12/02 05:34:31;;;;;;;23.10;16.60;;;;;;;5.53;70.43;100608.13;10380826;28;20053;-61
2022/12/02 05:39:32;;;;;;;19.85;14.82;;;;;;;5.53;70.97;100616.88;10379446;28;20045;-60
2022/12/02 05:44:34;;;;;;;20.77;15.40;;;;;;;5.58;71.69;100614.84;10376592;28;20137;-61
2022/12/02 05:49:43;;;;;;;21.38;16.38;;;;;;;5.53;72.08;100622.16;10380746;28;20700;-64
2022/12/02 05:54:44;;;;;;;21.17;15.93;;;;;;;5.28;73.52;100615.56;10380660;28;20115;-61
2022/12/02 05:59:46;;;;;;;21.73;15.20;;;;;;;5.29;73.70;100611.13;10378855;28;20060;-63
2022/12/02 06:04:47;;;;;;;23.40;17.85;;;;;;;5.41;74.02;100626.31;10377845;28;20057;-61
2022/12/02 06:09:52;;;;;;;21.23;15.68;;;;;;;5.48;73.55;100621.56;10376032;28;20087;-60
2022/12/02 06:14:54;;;;;;;21.67;15.07;;;;;;;5.23;72.98;100583.25;10379673;28;20083;-61
2022/12/02 06:19:56;;;;;;;21.27;14.95;;;;;;;5.38;73.35;100623.84;10378824;28;20530;-61
2022/12/02 06:25:05;;;;;;;19.85;15.02;;;;;;;5.45;73.20;100616.44;10377356;28;20057;-61
2022/12/02 06:30:13;;;;;;;19.40;14.20;;;;;;;5.23;73.47;100622.84;10376395;28;20041;-61
2022/12/02 06:35:23;;;;;;;21.55;15.68;;;;;;;5.25;73.66;100623.63;10373695;28;20881;-61
2022/12/02 06:40:32;;;;;;;22.35;16.63;;;;;;;5.23;73.89;100614.94;10375227;28;20049;-64
2022/12/02 06:45:33;;;;;;;20.27;14.77;;;;;;;5.14;73.15;100602.22;10378277;28;20079;-61
2022/12/02 06:50:39;;;;;;;18.63;14.93;;;;;;;5.37;72.75;100611.56;10374135;28;20044;-60
2022/12/02 06:55:43;;;;;;;20.80;13.52;;;;;;;5.33;72.85;100623.25;10373295;28;20057;-62
2022/12/02 07:00:45;;;;;;;19.45;15.15;;;;;;;5.32;72.96;100622.38;10380305;28;20522;-63
2022/12/02 07:05:46;;;;;;;16.75;13.75;;;;;;;5.20;72.70;100623.03;10377895;28;20068;-61
2022/12/02 07:10:47;;;;;;;15.27;12.88;;;;;;;5.03;72.83;100599.28;10378158;28;20499;-61
2022/12/02 07:15:49;;;;;;;18.63;13.18;;;;;;;5.13;76.30;100619.88;10369518;28;20051;-61
2022/12/02 07:20:50;;;;;;;16.95;12.75;;;;;;;5.73;73.04;100618.44;10376062;28;20053;-61
2022/12/02 07:25:54;;;;;;;14.88;12.68;;;;;;;5.71;72.08;100619.50;10375789;28;20189;-63
2022/12/02 07:31:17;;;;;;;17.05;12.98;;;;;;;5.58;72.55;100616.63;10382059;28;20299;-62
2022/12/02 07:36:18;;;;;;;19.42;15.30;;;;;;;5.32;73.30;100619.72;10382159;28;20544;-60
2022/12/02 07:41:20;;;;;;;15.02;12.52;;;;;;;5.21;73.86;100600.97;10383819;28;20041;-62
2022/12/02 07:46:21;;;;;;;16.50;12.65;;;;;;;5.18;73.88;100619.63;10385311;28;20056;-61
2022/12/02 07:51:24;;;;;;;15.95;13.15;;;;;;;5.11;74.08;100607.66;10382384;28;20510;-63
2022/12/02 07:56:25;;;;;;;14.63;12.25;;;;;;;5.08;74.32;100618.38;10381845;28;20365;-61
2022/12/02 08:01:27;;;;;;;17.02;13.40;;;;;;;5.12;74.38;100619.94;10383299;28;20284;-61
2022/12/02 08:06:28;;;;;;;16.23;12.55;;;;;;;5.14;74.13;100616.28;10381044;28;20076;-60
2022/12/02 08:11:37;;;;;;;14.45;12.13;;;;;;;5.06;74.62;100615.81;10381469;28;20447;-60
2022/12/02 08:16:39;;;;;;;16.30;12.23;;;;;;;4.95;74.80;100595.28;10382131;28;20053;-61
2022/12/02 08:21:40;;;;;;;16.25;11.90;;;;;;;5.00;74.72;100610.00;10383161;28;20555;-60
2022/12/02 08:26:43;;;;;;;16.13;12.45;;;;;;;4.89;74.64;100600.84;10383053;28;20569;-61
2022/12/02 08:31:45;;;;;;;16.95;13.25;;;;;;;4.78;74.80;100590.00;10380393;28;20049;-61
2022/12/02 08:36:46;;;;;;;16.70;12.75;;;;;;;4.82;75.23;100611.78;10379921;28;20735;-61
2022/12/02 08:41:47;;;;;;;16.98;12.25;;;;;;;4.75;75.00;100590.16;10376990;28;20115;-59
2022/12/02 08:46:49;;;;;;;16.83;12.85;;;;;;;4.87;75.10;100613.28;10380471;28;20063;-61
2022/12/02 08:51:55;;;;;;;16.20;12.35;;;;;;;4.89;74.83;100615.81;10379328;28;20533;-60
2022/12/02 08:56:59;;;;;;;13.13;11.27;;;;;;;4.89;75.28;100611.41;10379883;28;20160;-61
2022/12/02 09:02:00;;;;;;;14.67;11.57;;;;;;;4.86;75.08;100614.19;10378534;28;20108;-61
2022/12/02 09:07:01;;;;;;;15.10;12.10;;;;;;;4.75;75.15;100611.25;10380468;28;20051;-60
2022/12/02 09:12:03;;;;;;;16.38;12.93;;;;;;;4.88;74.95;100611.47;10383160;28;20068;-60
2022/12/02 09:17:04;;;;;;;15.40;11.77;;;;;;;4.92;75.11;100606.00;10373774;28;20049;-60
2022/12/02 09:22:06;;;;;;;15.55;11.93;;;;;;;4.89;74.90;100597.38;10373024;28;20672;-60
2022/12/02 09:27:07;;;;;;;15.95;12.00;;;;;;;4.95;74.42;100603.19;10379622;28;20815;-61
2022/12/02 09:32:08;;;;;;;15.27;12.15;;;;;;;5.03;74.78;100605.44;10381919;28;20057;-61
2022/12/02 09:37:10;;;;;;;15.77;12.88;;;;;;;5.04;74.08;100598.34;10381855;28;20119;-60
2022/12/02 09:42:11;;;;;;;14.02;11.60;;;;;;;5.09;73.91;100604.28;10378141;28;20075;-63
2022/12/02 09:47:14;;;;;;;21.40;15.75;;;;;;;5.03;74.37;100612.47;10381365;28;20055;-61
2022/12/02 09:52:19;;;;;;;16.00;12.68;;;;;;;5.08;74.34;100602.56;10382083;28;20049;-61
2022/12/02 09:57:31;;;;;;;15.55;13.05;;;;;;;4.94;75.21;100604.13;10376624;28;20480;-61
2022/12/02 10:02:53;;;;;;;15.50;12.65;;;;;;;5.02;75.14;100602.88;10378785;28;20048;-62
2022/12/02 10:07:57;;;;;;;13.23;11.40;;;;;;;5.10;74.99;100590.13;10376877;28;20057;-61
2022/12/02 10:12:59;;;;;;;17.33;12.52;;;;;;;5.12;75.48;100593.56;10377976;28;20325;-59
2022/12/02 10:18:27;;;;;;;15.73;12.57;;;;;;;5.05;75.53;100594.78;10378370;28;20053;-61
2022/12/02 10:23:28;;;;;;;14.55;11.07;;;;;;;5.17;75.36;100591.50;10376036;28;20044;-60
2022/12/02 10:28:32;;;;;;;17.77;12.75;;;;;;;5.21;74.98;100573.72;10377994;28;20044;-60
2022/12/02 10:33:37;;;;;;;13.35;11.07;;;;;;;5.09;75.15;100572.59;10377956;28;20052;-60
2022/12/02 10:38:41;;;;;;;13.95;11.32;;;;;;;4.86;75.09;100544.75;10374667;28;20215;-60
2022/12/02 10:43:51;;;;;;;14.25;10.85;;;;;;;5.09;75.32;100572.59;10375491;28;20048;-60
2022/12/02 10:48:52;;;;;;;13.48;11.55;;;;;;;5.15;74.96;100564.34;10374906;28;20131;-60
2022/12/02 10:53:57;;;;;;;13.70;11.05;;;;;;;5.13;74.72;100560.94;10377018;28;20660;-60
2022/12/02 10:59:01;;;;;;;;;;;;;;;5.16;74.78;100562.56;10375926;28;20176;-60
2022/12/02 11:04:04;;;;;;;13.75;10.32;;;;;;;5.06;74.82;100536.66;10376949;28;20385;-60
2022/12/02 11:09:06;;;;;;;13.35;10.85;;;;;;;5.17;75.76;100559.84;10374127;28;20056;-59
2022/12/02 11:14:39;;;;;;;12.98;10.52;;;;;;;5.18;75.53;100539.56;10373788;28;20554;-59
2022/12/02 11:19:45;;;;;;;11.55;9.82;;;;;;;5.16;75.51;100539.66;10379469;28;20060;-60
2022/12/02 11:24:46;;;;;;;11.85;9.82;;;;;;;4.90;76.41;100523.41;10375000;28;20162;-60
2022/12/02 11:30:03;;;;;;;12.15;10.35;;;;;;;5.03;76.02;100530.69;10372528;28;20678;-60
2022/12/02 11:35:13;;;;;;;12.13;10.02;;;;;;;5.04;76.20;100521.84;10374000;28;20148;-60
2022/12/02 11:40:19;;;;;;;15.10;11.75;;;;;;;5.08;76.38;100523.38;10374840;28;20742;-60
2022/12/02 11:45:20;;;;;;;14.52;11.35;;;;;;;5.16;75.64;100518.53;10377302;28;20075;-59
2022/12/02 11:50:28;;;;;;;13.77;11.80;;;;;;;5.08;76.17;100518.13;10374930;28;20063;-61
2022/12/02 11:55:38;;;;;;;13.18;11.77;;;;;;;5.16;76.04;100515.06;10371418;28;20499;-61
2022/12/02 12:00:44;;;;;;;12.32;11.05;;;;;;;5.12;76.32;100495.91;10375327;28;20491;-60
2022/12/02 12:06:04;;;;;;;14.82;11.40;;;;;;;5.27;75.61;100508.28;10381696;28;20057;-61
2022/12/02 12:11:16;;;;;;;15.25;12.75;;;;;;;5.13;75.98;100506.38;10379128;28;20045;-62
2022/12/02 12:16:22;;;;;;;13.35;11.93;;;;;;;5.23;76.06;100497.97;10380925;28;21511;-62
2022/12/02 12:21:30;;;;;;;18.85;13.80;;;;;;;5.24;75.82;100497.88;10392593;28;20140;-61
2022/12/02 12:26:33;;;;;;;14.77;12.52;;;;;;;5.26;75.72;100485.44;10392487;28;20053;-61
2022/12/02 12:31:34;;;;;;;15.27;12.35;;;;;;;5.27;75.66;100476.59;10384302;28;20063;-62
2022/12/02 12:36:39;;;;;;;;;;;;;;;5.33;75.10;100475.41;10382361;28;20056;-61
2022/12/02 12:41:40;;;;;;;13.23;11.65;;;;;;;5.24;74.96;100466.22;10377048;28;19924;-61
2022/12/02 12:47:03;;;;;;;15.40;12.05;;;;;;;5.29;75.14;100472.06;10381420;28;20052;-60
2022/12/02 12:52:05;;;;;;;17.70;14.95;;;;;;;5.25;75.38;100473.16;10379787;28;20652;-59
2022/12/02 12:57:06;;;;;;;13.10;11.55;;;;;;;5.19;75.76;100451.56;10380047;28;20052;-60
2022/12/02 13:02:08;;;;;;;13.00;11.10;;;;;;;5.32;75.42;100465.78;10383686;28;20564;-59
2022/12/02 13:07:09;;;;;;;14.85;11.27;;;;;;;5.23;76.27;100450.47;10383773;28;20084;-62
2022/12/02 13:12:11;;;;;;;15.45;13.05;;;;;;;5.24;75.76;100450.38;10382780;28;20063;-63
2022/12/02 13:17:14;;;;;;;12.13;10.23;;;;;;;5.18;75.57;100445.44;10390683;28;20558;-61
2022/12/02 13:22:15;;;;;;;13.40;11.40;;;;;;;5.21;75.59;100455.81;10382127;28;20068;-62
2022/12/02 13:27:18;;;;;;;15.07;13.13;;;;;;;5.14;75.78;100443.88;10379756;28;20053;-62
2022/12/02 13:32:20;;;;;;;11.25;9.82;;;;;;;5.16;75.87;100455.19;10382327;28;20048;-61
2022/12/02 13:37:21;;;;;;;14.82;13.30;;;;;;;5.16;76.07;100463.13;10386173;28;20057;-60
2022/12/02 13:42:23;;;;;;;11.65;9.70;;;;;;;5.16;75.71;100454.38;10387383;28;20053;-60
2022/12/02 13:47:24;;;;;;;13.20;11.80;;;;;;;5.14;76.13;100455.28;10385741;28;20216;-60
2022/12/02 13:52:25;;;;;;;11.40;10.10;;;;;;;4.99;76.52;100448.22;10387609;28;20053;-60
2022/12/02 13:57:27;;;;;;;15.27;13.45;;;;;;;5.08;75.87;100455.63;10383992;28;20056;-61
2022/12/02 14:02:28;;;;;;;10.35;9.25;;;;;;;5.14;76.04;100460.56;10381768;28;20062;-61
2022/12/02 14:07:29;;;;;;;16.73;14.60;;;;;;;5.09;75.93;100461.78;10381858;28;20059;-61
2022/12/02 14:12:31;;;;;;;10.27;8.95;;;;;;;5.11;75.71;100459.91;10382846;28;20049;-61
2022/12/02 14:17:33;;;;;;;9.60;8.50;;;;;;;5.03;75.72;100467.34;10380055;28;20049;-61
2022/12/02 14:22:35;;;;;;;10.07;8.65;;;;;;;5.00;76.13;100468.41;10382448;28;20823;-61
2022/12/02 14:27:36;;;;;;;10.63;9.25;;;;;;;4.96;76.09;100451.84;10382355;28;20077;-61
2022/12/02 14:32:37;;;;;;;9.55;8.13;;;;;;;4.94;75.90;100461.66;10384439;28;20052;-60
2022/12/02 14:37:39;;;;;;;9.18;8.02;;;;;;;5.00;76.15;100456.97;10383462;28;20099;-60
2022/12/02 14:42:40;;;;;;;10.00;8.52;;;;;;;5.07;76.04;100468.91;10379463;28;20506;-61
2022/12/02 14:47:41;;;;;;;10.35;8.90;;;;;;;5.05;75.78;100470.78;10379589;28;20715;-60
2022/12/02 14:52:43;;;;;;;9.00;7.90;;;;;;;4.68;75.85;100414.72;10379766;28;20471;-60
2022/12/02 14:57:44;;;;;;;10.00;8.43;;;;;;;4.87;76.13;100460.28;10386023;28;20049;-60
2022/12/02 15:02:46;;;;;;;8.00;7.20;;;;;;;4.98;76.39;100472.03;10382228;28;20064;-60
2022/12/02 15:07:48;;;;;;;9.05;8.07;;;;;;;4.66;76.24;100429.78;10382131;28;21875;-60
2022/12/02 15:12:49;;;;;;;9.05;8.15;;;;;;;4.84;76.56;100457.81;10376604;28;20080;-61
2022/12/02 15:17:51;;;;;;;8.07;7.28;;;;;;;4.87;76.60;100477.91;10378847;28;20057;-61
2022/12/02 15:22:54;;;;;;;9.43;8.43;;;;;;;4.88;76.80;100482.22;10382888;28;20380;-60
2022/12/02 15:27:55;;;;;;;8.70;7.53;;;;;;;4.96;77.37;100483.53;10377829;28;20055;-61
2022/12/02 15:32:56;;;;;;;9.43;7.78;;;;;;;5.02;77.45;100486.78;10376014;28;20367;-61
2022/12/02 15:37:58;;;;;;;9.88;8.40;;;;;;;5.02;76.75;100487.63;10372613;28;20045;-60
2022/12/02 15:42:59;;;;;;;8.82;7.55;;;;;;;5.01;76.87;100472.72;10373802;28;20063;-60
2022/12/02 15:48:01;;;;;;;9.00;7.88;;;;;;;5.08;76.29;100495.22;10373780;28;20060;-60
2022/12/02 15:53:02;;;;;;;8.73;7.82;;;;;;;5.02;76.23;100490.25;10386743;28;20598;-60
2022/12/02 15:58:03;;;;;;;8.60;7.68;;;;;;;4.96;76.26;100488.78;10386316;28;20049;-60
2022/12/02 16:03:05;;;;;;;7.78;6.97;;;;;;;4.99;75.65;100502.78;10386584;28;20056;-61
2022/12/02 16:08:06;;;;;;;8.07;6.75;;;;;;;4.98;75.03;100495.78;10385992;28;20414;-61
2022/12/02 16:13:08;;;;;;;12.05;10.20;;;;;;;5.02;75.26;100492.06;10385501;28;20040;-61
2022/12/02 16:18:09;;;;;;;8.07;7.25;;;;;;;5.00;74.23;100489.50;10389215;28;20053;-60
2022/12/02 16:23:10;;;;;;;8.35;7.53;;;;;;;4.88;74.10;100493.63;10382018;28;20057;-61
2022/12/02 16:28:12;;;;;;;7.85;6.70;;;;;;;5.00;74.50;100501.81;10379122;28;20083;-61
2022/12/02 16:33:13;;;;;;;8.98;8.00;;;;;;;5.08;73.02;100507.56;10382333;28;20042;-61
2022/12/02 16:38:15;;;;;;;8.07;7.28;;;;;;;4.91;72.86;100490.84;10386838;28;20128;-61
2022/12/02 16:43:16;;;;;;;7.43;6.35;;;;;;;4.87;72.60;100513.03;10388708;28;20171;-62
2022/12/02 16:48:17;;;;;;;8.45;7.03;;;;;;;4.95;72.54;100518.78;10382633;28;20060;-60
2022/12/02 16:53:19;;;;;;;7.53;6.72;;;;;;;4.95;72.11;100510.84;10385737;28;21517;-61
2022/12/02 16:58:20;;;;;;;7.03;6.32;;;;;;;4.94;71.47;100509.16;10382231;28;20131;-62
2022/12/02 17:03:21;;;;;;;7.30;6.57;;;;;;;4.92;71.90;100518.94;10383914;28;20048;-61
2022/12/02 17:08:23;;;;;;;7.78;6.90;;;;;;;4.79;71.53;100499.41;10386881;28;20083;-62
2022/12/02 17:13:24;;;;;;;6.88;6.18;;;;;;;4.81;71.47;100508.09;10383084;28;20045;-60
2022/12/02 17:18:25;;;;;;;8.30;7.03;;;;;;;4.79;70.67;100528.41;10383695;28;20423;-61
2022/12/02 17:23:27;;;;;;;7.60;6.90;;;;;;;4.81;71.21;100525.69;10381151;28;20057;-60
2022/12/02 17:28:28;;;;;;;6.50;5.88;;;;;;;4.48;71.96;100526.50;10381619;28;20049;-60
2022/12/02 17:33:29;;;;;;;7.60;6.80;;;;;;;4.69;72.54;100529.81;10378829;28;20060;-60
2022/12/02 17:38:31;;;;;;;7.65;6.68;;;;;;;4.66;72.72;100527.34;10378698;28;20825;-60
2022/12/02 17:43:32;;;;;;;7.28;6.45;;;;;;;4.60;73.12;100518.81;10380117;28;20049;-62
2022/12/02 17:48:33;;;;;;;7.20;6.45;;;;;;;4.57;73.79;100529.50;10378421;28;20656;-60
2022/12/02 17:53:36;;;;;;;7.32;5.70;;;;;;;4.62;73.49;100536.34;10380302;28;20052;-61
2022/12/02 17:58:37;;;;;;;16.58;12.23;;;;;;;4.44;73.28;100536.34;10384195;28;20680;-62
2022/12/02 18:03:39;;;;;;;8.15;6.40;;;;;;;4.55;73.93;100541.94;10370286;28;20913;-61
2022/12/02 18:08:40;;;;;;;7.70;6.90;;;;;;;4.63;73.34;100545.97;10371945;28;20146;-61
2022/12/02 18:13:43;;;;;;;8.15;6.65;;;;;;;4.58;72.80;100549.69;10380450;28;20075;-61
2022/12/02 18:18:44;;;;;;;10.27;7.80;;;;;;;4.62;72.93;100550.38;10380679;28;20557;-61
2022/12/02 18:23:45;;;;;;;7.20;6.13;;;;;;;4.51;72.44;100540.38;10380739;28;20052;-60
2022/12/02 18:28:47;;;;;;;7.38;6.13;;;;;;;4.53;72.49;100550.84;10377477;28;20091;-62
2022/12/02 18:33:48;;;;;;;7.40;6.40;;;;;;;4.50;73.40;100551.00;10378472;28;20546;-61
2022/12/02 18:38:49;;;;;;;7.93;6.15;;;;;;;4.41;73.54;100541.75;10377269;28;20056;-61
2022/12/02 18:43:51;;;;;;;6.28;5.18;;;;;;;4.48;72.95;100537.06;10376653;28;20045;-61
2022/12/02 18:48:52;;;;;;;7.13;6.43;;;;;;;4.43;73.15;100518.84;10370050;28;20508;-61
2022/12/02 18:53:53;;;;;;;9.95;7.40;;;;;;;4.04;74.05;100488.28;10373537;28;20052;-61
2022/12/02 18:58:55;;;;;;;34.50;25.90;;;;;;;4.43;74.81;100532.84;10374933;28;20475;-61
2022/12/02 19:03:56;;;;;;;8.05;7.25;;;;;;;4.39;74.48;100541.84;10376970;28;20558;-63
2022/12/02 19:08:58;;;;;;;9.82;8.15;;;;;;;4.30;74.56;100538.81;10376830;28;20056;-62
2022/12/02 19:13:59;;;;;;;9.48;7.32;;;;;;;4.25;74.45;100523.25;10377471;28;20063;-62
2022/12/02 19:19:00;;;;;;;9.50;8.05;;;;;;;4.28;74.37;100524.84;10376047;28;20060;-62
2022/12/02 19:24:02;;;;;;;7.50;6.70;;;;;;;4.17;74.82;100520.13;10384322;28;20164;-63
2022/12/02 19:29:03;;;;;;;7.30;6.45;;;;;;;4.15;74.63;100514.94;10392924;28;20049;-61
2022/12/02 19:34:04;;;;;;;6.85;6.15;;;;;;;4.21;74.68;100533.06;10388938;28;20056;-61
2022/12/02 19:39:06;;;;;;;6.72;5.97;;;;;;;4.12;75.55;100530.88;10386005;28;20049;-61
2022/12/02 19:44:07;;;;;;;6.95;6.25;;;;;;;4.07;75.06;100517.94;10387797;28;20451;-61
2022/12/02 19:49:09;;;;;;;6.60;5.90;;;;;;;4.09;75.13;100531.03;10378793;28;20642;-61
2022/12/02 19:54:10;;;;;;;6.65;5.65;;;;;;;4.05;75.62;100532.09;10385444;28;20045;-61
2022/12/02 19:59:11;;;;;;;6.97;6.15;;;;;;;4.08;75.26;100531.97;10385684;28;20140;-61
2022/12/02 20:04:13;;;;;;;7.03;6.32;;;;;;;3.98;75.95;100528.94;10386035;28;20392;-60
2022/12/02 20:09:34;;;;;;;6.75;5.93;;;;;;;3.76;76.11;100504.56;10385606;28;20053;-60
2022/12/02 20:14:35;;;;;;;6.85;5.88;;;;;;;4.03;76.04;100524.28;10383336;28;20526;-61
2022/12/02 20:19:37;;;;;;;7.57;6.75;;;;;;;4.00;75.63;100524.44;10380581;28;20515;-61
2022/12/02 20:24:38;;;;;;;7.97;6.90;;;;;;;4.03;75.85;100533.97;10380830;28;20463;-62
2022/12/02 20:29:40;;;;;;;7.55;6.43;;;;;;;3.98;75.99;100528.06;10376925;28;20071;-62
2022/12/02 20:34:43;;;;;;;8.15;7.05;;;;;;;4.06;76.01;100533.81;10380042;28;20766;-60
2022/12/02 20:39:44;;;;;;;8.30;6.63;;;;;;;3.88;76.10;100515.34;10382894;28;20056;-60
2022/12/02 20:44:45;;;;;;;7.63;6.53;;;;;;;4.04;75.65;100530.44;10386563;28;20049;-60
2022/12/02 20:49:53;;;;;;;7.68;6.90;;;;;;;3.83;75.95;100522.63;10375706;28;20041;-61
2022/12/02 20:54:54;;;;;;;7.78;6.93;;;;;;;3.86;75.95;100548.81;10381418;28;20780;-61
2022/12/02 20:59:56;;;;;;;7.88;7.07;;;;;;;3.80;76.53;100545.59;10386087;28;20130;-61
2022/12/02 21:04:57;;;;;;;8.85;7.22;;;;;;;3.78;76.25;100518.50;10383751;28;20049;-61
2022/12/02 21:09:58;;;;;;;7.88;7.03;;;;;;;3.64;75.91;100500.75;10382074;28;20056;-62
2022/12/02 21:15:02;;;;;;;7.57;6.68;;;;;;;3.81;76.39;100540.25;10384283;28;20721;-60
2022/12/02 21:20:04;;;;;;;238.10;162.93;;;;;;;3.83;77.73;100541.06;10374237;28;20071;-61
2022/12/02 21:25:06;;;;;;;8.35;7.55;;;;;;;3.86;76.39;100538.28;10385625;28;20053;-60
2022/12/02 21:30:08;;;;;;;7.85;7.03;;;;;;;4.00;76.03;100545.50;10378911;28;20079;-62
2022/12/02 21:35:09;;;;;;;9.57;8.07;;;;;;;4.00;75.78;100544.66;10389170;28;20075;-62
2022/12/02 21:40:13;;;;;;;8.52;6.57;;;;;;;3.87;75.62;100533.84;10392031;28;20053;-63
2022/12/02 21:45:14;;;;;;;8.13;7.25;;;;;;;3.81;76.29;100540.25;10393849;28;20045;-64
2022/12/02 21:50:16;;;;;;;8.82;7.15;;;;;;;3.89;76.32;100548.66;10389435;28;20060;-62
2022/12/02 21:55:17;;;;;;;8.90;7.32;;;;;;;3.78;76.35;100550.94;10390568;28;20054;-62
2022/12/02 22:00:19;;;;;;;8.48;6.90;;;;;;;3.66;76.67;100535.72;10389310;28;20068;-63
2022/12/02 22:05:20;;;;;;;9.85;7.47;;;;;;;3.62;77.37;100535.03;10397936;28;20046;-62
2022/12/02 22:10:24;;;;;;;7.68;6.88;;;;;;;3.68;77.51;100557.59;10388403;28;20048;-61
2022/12/02 22:15:25;;;;;;;8.38;6.50;;;;;;;3.57;77.75;100544.06;10390383;28;20046;-62
2022/12/02 22:20:26;;;;;;;8.02;7.13;;;;;;;3.70;77.51;100561.84;10389053;28;20150;-62
2022/12/02 22:25:27;;;;;;;9.20;7.50;;;;;;;3.75;77.25;100566.88;10389256;28;20044;-62
2022/12/02 22:30:29;;;;;;;8.55;7.30;;;;;;;3.73;77.58;100560.84;10389161;28;20049;-62
2022/12/02 22:35:30;;;;;;;9.45;7.78;;;;;;;3.68;76.91;100552.34;10389227;28;20040;-61
2022/12/02 22:40:32;;;;;;;10.23;7.43;;;;;;;3.83;76.85;100564.75;10387503;28;20049;-62
2022/12/02 22:45:33;;;;;;;9.40;7.82;;;;;;;3.76;76.79;100562.50;10387862;28;20049;-61
2022/12/02 22:50:34;;;;;;;11.07;8.68;;;;;;;3.70;77.31;100563.63;10390685;28;20447;-62
2022/12/02 22:55:36;;;;;;;8.82;7.82;;;;;;;3.72;77.44;100565.28;10383202;28;20064;-62
2022/12/02 23:00:37;;;;;;;11.20;9.00;;;;;;;3.73;77.31;100552.94;10386493;28;20053;-61
2022/12/02 23:05:38;;;;;;;9.60;7.63;;;;;;;3.69;77.36;100551.38;10387334;28;20132;-65